createdAt,value
2022-09-03T00:01:40.223Z,3.13
2022-09-03T00:04:37.672Z,2.75
2022-09-03T00:07:12.092Z,3.67
2022-09-03T00:09:47.676Z,2.97
2022-09-03T00:12:24.989Z,3.53
2022-09-03T00:15:09.324Z,3.25
2022-09-03T00:17:41.257Z,2.50
2022-09-03T00:20:20.272Z,3.15
2022-09-03T00:22:51.018Z,3.25
2022-09-03T00:25:25.083Z,2.65
2022-09-03T00:27:57.707Z,2.88
2022-09-03T00:30:24.822Z,3.15
2022-09-03T00:33:10.796Z,2.63
2022-09-03T00:35:51.850Z,2.88
2022-09-03T00:38:18.922Z,2.80
2022-09-03T00:41:13.026Z,2.78
2022-09-03T00:43:46.504Z,3.08
2022-09-03T00:46:22.586Z,2.95
2022-09-03T00:49:07.671Z,3.22
2022-09-03T00:51:44.924Z,3.70
2022-09-03T00:54:17.671Z,3.15
2022-09-03T00:56:53.956Z,2.78
2022-09-03T00:59:27.036Z,2.83
2022-09-03T01:02:15.732Z,3.15
2022-09-03T01:05:10.409Z,3.28
2022-09-03T01:08:11.897Z,3.20
2022-09-03T01:11:02.849Z,2.90
2022-09-03T01:13:29.745Z,3.05
2022-09-03T01:16:30.487Z,3.13
2022-09-03T01:19:13.556Z,2.78
2022-09-03T01:21:58.781Z,3.22
2022-09-03T01:24:34.610Z,2.60
2022-09-03T01:27:23.286Z,2.83
2022-09-03T01:30:11.231Z,3.35
2022-09-03T01:32:45.978Z,2.83
2022-09-03T01:35:35.199Z,3.17
2022-09-03T01:38:16.776Z,2.90
2022-09-03T01:40:54.224Z,3.53
2022-09-03T01:43:34.038Z,3.47
2022-09-03T01:46:08.808Z,3.17
2022-09-03T01:48:48.167Z,2.40
2022-09-03T01:51:23.141Z,3.22
2022-09-03T01:54:03.749Z,3.50
2022-09-03T01:56:51.610Z,3.40
2022-09-03T01:59:52.158Z,3.40
2022-09-03T02:02:25.490Z,3.42
2022-09-03T02:05:24.328Z,3.17
2022-09-03T02:07:57.925Z,3.30
2022-09-03T02:10:51.025Z,3.22
2022-09-03T02:13:26.700Z,2.95
2022-09-03T02:15:58.010Z,2.95
2022-09-03T02:18:31.037Z,3.47
2022-09-03T02:21:01.013Z,3.13
2022-09-03T02:23:28.954Z,3.17
2022-09-03T02:25:58.785Z,2.75
2022-09-03T02:28:28.169Z,3.13
2022-09-03T02:30:55.407Z,3.00
2022-09-03T02:33:22.843Z,3.30
2022-09-03T02:35:49.733Z,3.35
2022-09-03T02:38:23.087Z,3.17
2022-09-03T02:40:50.037Z,2.95
2022-09-03T02:43:26.598Z,3.60
2022-09-03T02:45:57.523Z,2.75
2022-09-03T02:48:24.937Z,3.20
2022-09-03T02:50:51.988Z,3.60
2022-09-03T02:53:19.345Z,3.30
2022-09-03T02:55:46.139Z,3.20
2022-09-03T02:58:13.237Z,3.70
2022-09-03T03:00:40.151Z,3.35
2022-09-03T03:03:07.140Z,3.70
2022-09-03T03:06:00.561Z,3.45
2022-09-03T03:08:28.744Z,4.07
2022-09-03T03:10:58.940Z,3.50
2022-09-03T03:13:30.006Z,3.90
2022-09-03T03:16:00.650Z,3.88
2022-09-03T03:18:28.342Z,3.78
2022-09-03T03:20:55.618Z,4.22
2022-09-03T03:23:22.530Z,4.25
2022-09-03T03:25:49.439Z,4.05
2022-09-03T03:28:16.419Z,3.83
2022-09-03T03:30:43.359Z,3.60
2022-09-03T03:33:10.495Z,3.92
2022-09-03T03:35:37.481Z,3.25
2022-09-03T03:38:05.202Z,3.72
2022-09-03T03:40:32.118Z,3.83
2022-09-03T03:42:59.054Z,3.72
2022-09-03T03:45:26.169Z,3.60
2022-09-03T03:47:58.206Z,3.83
2022-09-03T03:50:28.099Z,3.85
2022-09-03T03:52:55.537Z,4.38
2022-09-03T03:55:23.086Z,3.60
2022-09-03T03:57:53.932Z,3.92
2022-09-03T04:00:20.816Z,3.60
2022-09-03T04:02:47.882Z,3.80
2022-09-03T04:05:15.791Z,3.88
2022-09-03T04:07:46.019Z,4.00
2022-09-03T04:10:13.539Z,4.22
2022-09-03T04:12:40.447Z,3.08
2022-09-03T04:15:07.596Z,3.00
2022-09-03T04:17:34.535Z,3.47
2022-09-03T04:20:01.686Z,3.63
2022-09-03T04:22:29.591Z,3.28
2022-09-03T04:24:56.381Z,3.35
2022-09-03T04:27:23.574Z,3.03
2022-09-03T04:29:50.368Z,3.33
2022-09-03T04:32:35.848Z,3.40
2022-09-03T04:35:02.784Z,3.40
2022-09-03T04:37:29.680Z,3.15
2022-09-03T04:39:56.684Z,3.60
2022-09-03T04:42:23.513Z,3.65
2022-09-03T04:44:50.504Z,4.05
2022-09-03T04:47:17.425Z,3.30
2022-09-03T04:49:44.652Z,3.50
2022-09-03T04:52:12.106Z,2.92
2022-09-03T04:54:39.006Z,3.05
2022-09-03T04:57:05.831Z,3.45
2022-09-03T04:59:32.928Z,4.18
2022-09-03T05:02:00.254Z,3.30
2022-09-03T05:04:27.294Z,3.45
2022-09-03T05:06:54.123Z,3.63
2022-09-03T05:09:21.570Z,3.45
2022-09-03T05:11:48.385Z,3.15
2022-09-03T05:14:15.278Z,3.67
2022-09-03T05:16:42.417Z,3.33
2022-09-03T05:19:20.064Z,3.15
2022-09-03T05:21:46.902Z,3.45
2022-09-03T05:24:15.569Z,2.75
2022-09-03T05:26:42.418Z,2.95
2022-09-03T05:29:09.648Z,3.13
2022-09-03T05:31:39.485Z,2.85
2022-09-03T05:34:07.343Z,2.97
2022-09-03T05:36:37.097Z,3.40
2022-09-03T05:39:05.813Z,2.92
2022-09-03T05:41:34.332Z,2.80
2022-09-03T05:44:02.244Z,3.25
2022-09-03T05:46:37.597Z,3.33
2022-09-03T05:51:35.031Z,3.47
2022-09-03T05:54:02.908Z,3.10
2022-09-03T05:56:31.589Z,3.17
2022-09-03T05:59:02.096Z,3.45
2022-09-03T06:01:31.908Z,3.03
2022-09-03T06:04:17.108Z,4.15
2022-09-03T06:06:45.679Z,3.78
2022-09-03T06:09:16.721Z,3.42
2022-09-03T06:11:44.949Z,4.50
2022-09-03T06:14:14.737Z,3.42
2022-09-03T06:16:44.196Z,4.03
2022-09-03T06:19:12.017Z,3.65
2022-09-03T06:21:42.918Z,3.63
2022-09-03T06:24:14.919Z,3.92
2022-09-03T06:26:43.055Z,3.17
2022-09-03T06:29:11.848Z,3.38
2022-09-03T06:31:39.897Z,3.28
2022-09-03T06:34:09.250Z,3.67
2022-09-03T06:36:36.734Z,3.83
2022-09-03T06:39:06.375Z,3.67
2022-09-03T06:41:35.621Z,3.45
2022-09-03T06:44:06.037Z,3.40
2022-09-03T06:46:35.434Z,4.07
2022-09-03T06:49:03.289Z,3.50
2022-09-03T06:51:35.066Z,3.50
2022-09-03T06:54:10.739Z,4.00
2022-09-03T06:56:40.974Z,3.58
2022-09-03T06:59:14.011Z,3.60
2022-09-03T07:01:44.623Z,3.88
2022-09-03T07:04:14.081Z,3.67
2022-09-03T07:06:42.916Z,4.18
2022-09-03T07:09:11.963Z,3.30
2022-09-03T07:11:47.127Z,3.90
2022-09-03T07:14:14.855Z,3.55
2022-09-03T07:16:43.204Z,3.78
2022-09-03T07:19:10.360Z,4.15
2022-09-03T07:21:37.921Z,3.20
2022-09-03T07:24:06.122Z,3.90
2022-09-03T07:26:48.068Z,3.90
2022-09-03T07:29:20.448Z,3.42
2022-09-03T07:31:51.974Z,3.70
2022-09-03T07:34:22.197Z,4.28
2022-09-03T07:36:51.914Z,4.53
2022-09-03T07:39:22.175Z,3.42
2022-09-03T07:41:50.570Z,3.40
2022-09-03T07:44:57.774Z,3.65
2022-09-03T07:47:50.122Z,3.40
2022-09-03T07:50:17.578Z,3.53
2022-09-03T07:52:44.528Z,3.80
2022-09-03T07:55:11.655Z,3.25
2022-09-03T07:57:38.585Z,3.00
2022-09-03T08:00:08.776Z,2.60
2022-09-03T08:02:41.028Z,2.72
2022-09-03T08:05:09.966Z,2.35
2022-09-03T08:07:36.869Z,2.50
2022-09-03T08:10:07.242Z,3.33
2022-09-03T08:12:34.111Z,2.65
2022-09-03T08:15:01.089Z,2.88
2022-09-03T08:17:27.955Z,2.35
2022-09-03T08:19:57.562Z,2.55
2022-09-03T08:22:30.115Z,2.13
2022-09-03T08:24:57.077Z,2.58
2022-09-03T08:27:25.544Z,2.47
2022-09-03T08:29:52.435Z,2.40
2022-09-03T08:32:21.434Z,2.20
2022-09-03T08:34:50.986Z,2.70
2022-09-03T08:37:18.771Z,2.95
2022-09-03T08:39:45.896Z,2.28
2022-09-03T08:42:15.964Z,2.78
2022-09-03T08:44:54.320Z,2.50
2022-09-03T08:47:39.594Z,2.00
2022-09-03T08:52:49.408Z,2.40
2022-09-03T08:55:26.964Z,2.75
2022-09-03T08:58:14.606Z,2.38
2022-09-03T09:00:48.637Z,2.22
2022-09-03T09:03:32.021Z,2.10
2022-09-03T09:06:20.493Z,1.65
2022-09-03T09:09:04.657Z,1.98
2022-09-03T09:11:51.527Z,2.00
2022-09-03T09:14:52.685Z,2.25
2022-09-03T09:17:32.795Z,1.92
2022-09-03T09:20:31.868Z,2.28
2022-09-03T09:23:13.657Z,1.88
2022-09-03T09:25:51.354Z,2.67
2022-09-03T09:28:38.583Z,2.47
2022-09-03T09:31:19.607Z,2.53
2022-09-03T09:33:52.660Z,3.17
2022-09-03T09:36:20.303Z,3.08
2022-09-03T09:39:08.786Z,2.35
2022-09-03T09:41:41.126Z,2.30
2022-09-03T09:44:25.907Z,1.85
2022-09-03T09:47:13.164Z,1.80
2022-09-03T09:49:47.097Z,1.90
2022-09-03T09:52:23.367Z,1.65
2022-09-03T09:55:04.823Z,2.38
2022-09-03T09:57:32.218Z,2.10
2022-09-03T10:00:09.415Z,1.92
2022-09-03T10:02:56.926Z,2.40
2022-09-03T10:05:36.424Z,2.35
2022-09-03T10:08:07.723Z,1.92
2022-09-03T10:10:40.158Z,2.38
2022-09-03T10:16:30.127Z,3.42
2022-09-03T10:20:05.006Z,2.47
2022-09-03T10:22:35.895Z,2.50
2022-09-03T10:25:06.219Z,2.67
2022-09-03T10:28:15.886Z,2.42
2022-09-03T10:31:17.512Z,2.15
2022-09-03T10:33:59.655Z,2.28
2022-09-03T10:37:01.472Z,2.15
2022-09-03T10:40:21.598Z,2.17
2022-09-03T10:43:34.669Z,1.73
2022-09-03T10:50:02.395Z,2.10
2022-09-03T11:00:15.469Z,2.05
2022-09-03T11:06:23.827Z,2.08
2022-09-03T11:15:54.467Z,2.10
2022-09-03T11:18:45.555Z,2.65
2022-09-03T11:21:17.048Z,2.25
2022-09-03T11:23:55.288Z,2.95
2022-09-03T11:26:28.255Z,2.40
2022-09-03T11:29:14.425Z,2.85
2022-09-03T11:32:09.940Z,2.10
2022-09-03T11:34:55.819Z,2.60
2022-09-03T11:37:31.566Z,2.70
2022-09-03T11:40:08.129Z,2.10
2022-09-03T11:42:43.282Z,2.80
2022-09-03T11:53:21.096Z,2.75
2022-09-03T11:56:07.825Z,2.50
2022-09-03T11:58:40.782Z,2.95
2022-09-03T12:01:16.028Z,2.58
2022-09-03T12:03:57.675Z,2.90
2022-09-03T12:06:58.086Z,2.67
2022-09-03T12:09:40.711Z,2.72
2022-09-03T12:12:49.220Z,2.55
2022-09-03T12:15:41.454Z,2.67
2022-09-03T12:18:21.816Z,2.45
2022-09-03T12:21:00.991Z,2.67
2022-09-03T12:23:45.147Z,2.15
2022-09-03T12:26:18.174Z,2.42
2022-09-03T12:29:01.189Z,2.00
2022-09-03T12:31:31.609Z,2.70
2022-09-03T12:34:11.899Z,2.20
2022-09-03T12:36:53.688Z,2.53
2022-09-03T12:42:21.958Z,2.30
2022-09-03T12:44:50.071Z,2.75
2022-09-03T12:47:37.407Z,2.22
2022-09-03T12:50:20.368Z,2.72
2022-09-03T12:52:53.670Z,2.30
2022-09-03T12:55:43.426Z,2.95
2022-09-03T12:58:16.258Z,2.65
2022-09-03T13:00:56.729Z,2.70
2022-09-03T13:03:33.384Z,2.55
2022-09-03T13:06:07.402Z,2.90
2022-09-03T13:08:44.576Z,2.63
2022-09-03T13:11:17.634Z,2.30
2022-09-03T13:14:00.891Z,2.55
2022-09-03T13:16:49.008Z,3.10
2022-09-03T13:19:44.173Z,2.10
2022-09-03T13:22:23.304Z,2.70
2022-09-03T13:25:05.055Z,2.45
2022-09-03T13:28:05.023Z,2.70
2022-09-03T13:30:44.827Z,2.88
2022-09-03T13:33:29.195Z,3.05
2022-09-03T13:36:18.269Z,2.40
2022-09-03T13:39:27.255Z,2.47
2022-09-03T13:42:07.968Z,3.25
2022-09-03T13:45:06.258Z,2.60
2022-09-03T13:48:48.988Z,2.95
2022-09-03T13:51:24.721Z,2.72
2022-09-03T13:54:11.872Z,3.35
2022-09-03T13:56:49.629Z,3.28
2022-09-03T13:59:25.673Z,3.22
2022-09-03T14:02:08.199Z,2.45
2022-09-03T14:05:01.263Z,2.75
2022-09-03T14:07:45.049Z,2.97
2022-09-03T14:10:46.124Z,3.88
2022-09-03T14:13:31.085Z,2.50
2022-09-03T14:16:15.084Z,2.72
2022-09-03T14:18:45.344Z,2.70
2022-09-03T14:21:21.788Z,2.97
2022-09-03T14:24:13.042Z,2.80
2022-09-03T14:26:54.224Z,2.67
2022-09-03T14:29:26.012Z,2.97
2022-09-03T14:32:29.463Z,2.58
2022-09-03T14:35:12.044Z,3.05
2022-09-03T14:38:19.071Z,3.55
2022-09-03T14:41:14.017Z,3.10
2022-09-03T14:44:05.381Z,3.53
2022-09-03T14:46:43.883Z,3.50
2022-09-03T14:49:27.400Z,3.67
2022-09-03T14:52:23.373Z,2.88
2022-09-03T14:57:40.459Z,3.50
2022-09-03T15:00:20.023Z,3.42
2022-09-03T15:02:47.132Z,3.28
2022-09-03T15:05:27.883Z,2.83
2022-09-03T15:08:21.473Z,3.20
2022-09-03T15:11:38.414Z,2.92
2022-09-03T15:14:18.783Z,3.58
2022-09-03T15:16:56.609Z,3.28
2022-09-03T15:19:51.442Z,3.33
2022-09-03T15:22:27.540Z,3.50
2022-09-03T15:25:13.613Z,4.22
2022-09-03T15:28:07.191Z,3.80
2022-09-03T15:30:41.511Z,4.20
2022-09-03T15:33:37.762Z,3.93
2022-09-03T15:36:16.331Z,3.20
2022-09-03T15:38:57.272Z,3.75
2022-09-03T15:41:50.525Z,3.53
2022-09-03T15:44:20.193Z,3.70
2022-09-03T15:46:53.633Z,3.75
2022-09-03T15:49:46.466Z,3.85
2022-09-03T15:52:49.351Z,4.25
2022-09-03T15:55:33.445Z,4.88
2022-09-03T15:58:23.949Z,4.80
2022-09-03T16:01:00.210Z,4.43
2022-09-03T16:03:56.200Z,4.35
2022-09-03T16:06:39.979Z,4.18
2022-09-03T16:09:46.550Z,3.92
2022-09-03T16:12:34.412Z,4.57
2022-09-03T16:15:10.581Z,5.07
2022-09-03T16:17:43.631Z,4.18
2022-09-03T16:20:27.043Z,4.95
2022-09-03T16:23:13.269Z,4.90
2022-09-03T16:25:50.202Z,4.43
2022-09-03T16:28:32.302Z,4.70
2022-09-03T16:31:24.138Z,4.75
2022-09-03T16:34:04.976Z,5.38
2022-09-03T16:36:38.367Z,5.55
2022-09-03T16:39:22.044Z,4.70
2022-09-03T16:42:13.750Z,4.78
2022-09-03T16:44:50.768Z,5.55
2022-09-03T16:47:20.579Z,5.38
2022-09-03T16:49:53.772Z,5.35
2022-09-03T16:52:42.659Z,5.20
2022-09-03T16:55:22.867Z,5.10
2022-09-03T16:58:09.859Z,5.10
2022-09-03T17:01:06.820Z,5.80
2022-09-03T17:04:03.154Z,5.35
2022-09-03T17:08:58.516Z,4.82
2022-09-03T17:11:46.674Z,5.50
2022-09-03T17:14:39.912Z,5.50
2022-09-03T17:17:25.501Z,4.80
2022-09-03T17:20:01.202Z,5.35
2022-09-03T17:22:45.301Z,5.22
2022-09-03T17:25:36.031Z,5.35
2022-09-03T17:28:12.296Z,6.15
2022-09-03T17:30:48.890Z,5.13
2022-09-03T17:33:38.998Z,6.00
2022-09-03T17:36:31.544Z,6.18
2022-09-03T17:39:36.282Z,6.47
2022-09-03T17:42:14.578Z,6.47
2022-09-03T17:45:07.294Z,6.85
2022-09-03T17:47:53.153Z,6.95
2022-09-03T17:50:31.623Z,6.85
2022-09-03T17:53:10.520Z,6.90
2022-09-03T17:56:12.162Z,7.63
2022-09-03T17:58:50.160Z,6.78
2022-09-03T18:01:21.667Z,5.72
2022-09-03T18:04:14.349Z,5.75
2022-09-03T18:06:55.922Z,6.47
2022-09-03T18:09:37.595Z,7.13
2022-09-03T18:12:26.744Z,6.78
2022-09-03T18:15:05.166Z,6.95
2022-09-03T18:17:44.800Z,7.07
2022-09-03T18:20:33.876Z,7.47
2022-09-03T18:23:44.629Z,6.60
2022-09-03T18:26:39.522Z,6.30
2022-09-03T18:29:35.471Z,7.25
2022-09-03T18:32:21.756Z,6.85
2022-09-03T18:35:07.574Z,6.97
2022-09-03T18:37:55.766Z,6.38
2022-09-03T18:40:46.763Z,6.45
2022-09-03T18:44:10.888Z,7.25
2022-09-03T18:50:43.035Z,6.82
2022-09-03T18:53:54.037Z,6.63
2022-09-03T18:56:54.597Z,7.30
2022-09-03T19:00:02.506Z,7.35
2022-09-03T19:03:18.828Z,8.50
2022-09-03T19:06:26.902Z,8.30
2022-09-03T19:09:44.670Z,7.43
2022-09-03T19:13:01.469Z,7.53
2022-09-03T19:16:06.074Z,7.78
2022-09-03T19:19:14.004Z,7.47
2022-09-03T19:22:07.587Z,7.72
2022-09-03T19:24:53.145Z,8.77
2022-09-03T19:28:04.557Z,7.82
2022-09-03T19:31:18.627Z,8.05
2022-09-03T19:34:13.557Z,8.30
2022-09-03T19:37:33.576Z,7.70
2022-09-03T19:40:44.169Z,9.52
2022-09-03T19:43:33.620Z,9.63
2022-09-03T19:47:05.561Z,9.23
2022-09-03T19:50:20.245Z,9.25
2022-09-03T19:53:15.394Z,9.25
2022-09-03T19:56:09.491Z,9.20
2022-09-03T19:59:01.064Z,9.35
2022-09-03T20:01:55.792Z,9.27
2022-09-03T20:05:03.055Z,9.60
2022-09-03T20:07:51.138Z,9.05
2022-09-03T20:10:25.493Z,9.05
2022-09-03T20:13:24.107Z,8.63
2022-09-03T20:16:18.439Z,7.68
2022-09-03T20:19:23.419Z,7.45
2022-09-03T20:22:04.581Z,7.43
2022-09-03T20:24:58.851Z,7.95
2022-09-03T20:27:50.828Z,7.30
2022-09-03T20:30:20.707Z,7.43
2022-09-03T20:32:53.357Z,6.90
2022-09-03T20:36:09.718Z,7.15
2022-09-03T20:39:03.771Z,7.07
2022-09-03T20:41:43.043Z,6.07
2022-09-03T20:44:47.943Z,6.18
2022-09-03T20:47:26.864Z,5.90
2022-09-03T20:50:24.740Z,6.60
2022-09-03T20:53:11.403Z,6.38
2022-09-03T20:55:51.258Z,6.10
2022-09-03T20:58:38.245Z,6.15
2022-09-03T21:01:10.909Z,5.60
2022-09-03T21:04:33.612Z,6.55
2022-09-03T21:07:20.256Z,6.68
2022-09-03T21:10:32.567Z,6.93
2022-09-03T21:13:40.607Z,6.47
2022-09-03T21:16:59.065Z,6.65
2022-09-03T21:20:03.276Z,5.95
2022-09-03T21:22:47.303Z,7.25
2022-09-03T21:25:31.096Z,6.70
2022-09-03T21:32:11.777Z,6.38
2022-09-03T21:35:27.316Z,6.68
2022-09-03T21:38:16.938Z,6.95
2022-09-03T21:41:05.339Z,6.40
2022-09-03T21:44:03.073Z,6.35
2022-09-03T21:47:26.021Z,6.32
2022-09-03T21:50:28.827Z,6.53
2022-09-03T21:53:09.829Z,6.47
2022-09-03T21:56:16.354Z,6.32
2022-09-03T21:59:09.132Z,5.80
2022-09-03T22:02:17.294Z,6.00
2022-09-03T22:04:44.376Z,6.72
2022-09-03T22:07:42.470Z,6.70
2022-09-03T22:10:28.207Z,5.90
2022-09-03T22:13:23.259Z,6.13
2022-09-03T22:15:56.049Z,5.78
2022-09-03T22:18:29.383Z,6.70
2022-09-03T22:21:18.954Z,5.93
2022-09-03T22:24:04.259Z,7.13
2022-09-03T22:26:45.783Z,6.00
2022-09-03T22:29:40.770Z,6.80
2022-09-03T22:32:25.083Z,6.20
2022-09-03T22:35:05.758Z,6.82
2022-09-03T22:37:57.719Z,6.68
2022-09-03T22:40:52.215Z,6.47
2022-09-03T22:43:38.523Z,6.28
2022-09-03T22:46:22.954Z,6.47
2022-09-03T22:49:28.808Z,6.60
2022-09-03T22:52:28.044Z,7.03
2022-09-03T22:55:10.910Z,7.05
2022-09-03T22:58:03.134Z,7.35
2022-09-03T23:00:41.425Z,6.97
2022-09-03T23:03:14.873Z,6.93
2022-09-03T23:06:07.170Z,7.57
2022-09-03T23:09:07.944Z,7.32
2022-09-03T23:11:43.957Z,8.65
2022-09-03T23:14:14.316Z,7.95
2022-09-03T23:16:52.851Z,8.15
2022-09-03T23:19:33.579Z,7.80
2022-09-03T23:22:06.832Z,8.43
2022-09-03T23:24:43.693Z,8.50
2022-09-03T23:27:22.878Z,9.55
2022-09-03T23:30:00.080Z,8.98
2022-09-03T23:32:33.125Z,8.82
2022-09-03T23:35:03.931Z,8.73
2022-09-03T23:38:22.542Z,9.13
2022-09-03T23:40:51.797Z,10.20
2022-09-03T23:43:42.991Z,9.85
2022-09-03T23:46:22.342Z,10.38
2022-09-03T23:49:02.171Z,10.55
2022-09-03T23:51:39.231Z,9.95
2022-09-03T23:54:39.644Z,10.15
2022-09-03T23:57:20.127Z,10.15
